Time;durP1;ratioP1;P1;durP2;ratioP2;P2;SDS_P1;SDS_P2;PMS_P1;PMS_P2;Temp;Humidity;BMP_temperature;BMP_pressure;BME280_temperature;BME280_humidity;BME280_pressure;Samples;Min_cycle;Max_cycle;Signal;HPM_P1;HPM_P2
2021/01/02 00:00:51;;;;;;;18.95;11.63;;;6.80;84.40;;;;;;5092488;28;20028;-74
2021/01/02 00:03:47;;;;;;;19.08;11.63;;;6.80;84.40;;;;;;5092590;28;20028;-74
2021/01/02 00:06:36;;;;;;;21.40;12.00;;;6.90;84.40;;;;;;5091078;28;20460;-74
2021/01/02 00:09:05;;;;;;;20.27;11.77;;;6.90;84.40;;;;;;5092777;28;20028;-74
2021/01/02 00:12:02;;;;;;;21.00;12.23;;;6.80;84.30;;;;;;5092381;28;20111;-74
2021/01/02 00:14:36;;;;;;;18.63;10.93;;;6.80;84.40;;;;;;5092610;28;20089;-74
2021/01/02 00:17:51;;;;;;;22.17;12.18;;;6.80;84.40;;;;;;5096499;28;20416;-74
2021/01/02 00:20:22;;;;;;;20.17;11.57;;;6.80;84.40;;;;;;5096653;28;20070;-74
2021/01/02 00:22:55;;;;;;;18.58;10.82;;;6.80;84.40;;;;;;5096203;28;20114;-74
2021/01/02 00:25:24;;;;;;;18.65;11.10;;;6.80;84.40;;;;;;5095099;28;20020;-74
2021/01/02 00:28:21;;;;;;;20.15;11.93;;;6.90;84.40;;;;;;5096266;28;20028;-74
2021/01/02 00:31:11;;;;;;;22.00;11.65;;;6.90;84.30;;;;;;5094935;28;20046;-74
2021/01/02 00:33:52;;;;;;;19.70;11.55;;;6.90;84.20;;;;;;5094928;28;20085;-74
2021/01/02 00:36:31;;;;;;;25.13;12.82;;;6.90;84.20;;;;;;5096230;28;20032;-74
2021/01/02 00:38:56;;;;;;;19.65;11.95;;;6.90;84.30;;;;;;5094733;28;20030;-74
2021/01/02 00:41:22;;;;;;;19.95;11.82;;;6.90;84.20;;;;;;5094726;28;20114;-74
2021/01/02 00:43:53;;;;;;;22.65;13.23;;;6.90;84.20;;;;;;5094605;28;20039;-74
2021/01/02 00:46:18;;;;;;;19.73;12.57;;;6.90;84.20;;;;;;5094822;28;20065;-74
2021/01/02 00:48:47;;;;;;;21.45;12.25;;;7.00;84.20;;;;;;5094581;28;20123;-74
2021/01/02 00:51:15;;;;;;;20.63;12.57;;;6.90;84.10;;;;;;5094700;28;20070;-74
2021/01/02 00:54:03;;;;;;;20.13;11.95;;;6.90;84.10;;;;;;5094342;28;20038;-74
2021/01/02 00:56:32;;;;;;;20.48;11.55;;;6.90;84.20;;;;;;5094326;28;20040;-74
2021/01/02 00:59:25;;;;;;;24.25;13.10;;;6.90;84.20;;;;;;5094365;28;20072;-74
2021/01/02 01:02:05;;;;;;;21.33;12.03;;;6.90;84.10;;;;;;5094296;28;20039;-75
2021/01/02 01:04:52;;;;;;;22.08;12.50;;;6.90;84.10;;;;;;5094261;28;20089;-75
2021/01/02 01:07:20;;;;;;;19.85;12.70;;;6.90;84.10;;;;;;5095361;28;20047;-74
2021/01/02 01:09:50;;;;;;;22.40;13.38;;;6.90;84.00;;;;;;5094121;28;20082;-75
2021/01/02 01:12:19;;;;;;;20.65;12.75;;;6.90;84.10;;;;;;5094118;28;20024;-74
2021/01/02 01:14:48;;;;;;;20.08;12.32;;;6.90;84.20;;;;;;5094065;28;20054;-74
2021/01/02 01:17:21;;;;;;;21.33;13.77;;;6.80;84.20;;;;;;5095399;28;20028;-74
2021/01/02 01:19:57;;;;;;;18.45;12.90;;;6.80;84.10;;;;;;5095280;28;20384;-74
2021/01/02 01:22:27;;;;;;;23.23;13.70;;;6.80;84.10;;;;;;5093706;28;20028;-74
2021/01/02 01:25:06;;;;;;;23.65;13.38;;;6.80;84.20;;;;;;5093770;28;20020;-74
2021/01/02 01:27:54;;;;;;;21.98;13.48;;;6.80;84.10;;;;;;5094421;28;20020;-74
2021/01/02 01:30:23;;;;;;;22.70;14.13;;;6.80;84.00;;;;;;5095066;28;20504;-75
2021/01/02 01:33:02;;;;;;;21.77;14.18;;;6.70;84.00;;;;;;5093786;28;20047;-74
2021/01/02 01:35:29;;;;;;;23.80;14.13;;;6.70;84.00;;;;;;5093731;28;20028;-74
2021/01/02 01:37:58;;;;;;;20.95;13.40;;;6.70;84.00;;;;;;5095207;28;20032;-75
2021/01/02 01:40:31;;;;;;;22.30;13.00;;;6.70;84.20;;;;;;5094972;28;20031;-74
2021/01/02 01:43:19;;;;;;;24.70;14.82;;;6.70;84.20;;;;;;5095357;28;20070;-74
2021/01/02 01:46:14;;;;;;;21.40;13.20;;;6.60;84.10;;;;;;5094983;28;20136;-74
2021/01/02 01:49:05;;;;;;;21.83;13.23;;;6.70;84.80;;;;;;5089805;28;20043;-74
2021/01/02 01:51:59;;;;;;;23.90;13.65;;;6.70;84.10;;;;;;5093595;28;20020;-74
2021/01/02 01:54:55;;;;;;;24.20;14.75;;;6.70;84.20;;;;;;5093620;28;20116;-74
2021/01/02 01:57:28;;;;;;;21.90;13.18;;;6.60;84.10;;;;;;5093486;28;20028;-74
2021/01/02 01:59:56;;;;;;;20.90;12.70;;;6.70;84.10;;;;;;5093507;28;20388;-74
2021/01/02 02:02:44;;;;;;;21.40;13.00;;;6.70;84.10;;;;;;5093666;28;20126;-74
2021/01/02 02:05:14;;;;;;;22.55;13.82;;;6.70;84.00;;;;;;5093163;28;20052;-75
2021/01/02 02:07:52;;;;;;;21.98;13.43;;;6.70;84.00;;;;;;5093143;28;20055;-74
2021/01/02 02:10:36;;;;;;;22.38;13.40;;;6.60;84.10;;;;;;5093298;28;20024;-74
2021/01/02 02:13:14;;;;;;;24.10;13.40;;;6.60;84.00;;;;;;5094938;28;20103;-73
2021/01/02 02:15:59;;;;;;;22.17;13.90;;;6.60;84.00;;;;;;5094541;28;20027;-75
2021/01/02 02:18:29;;;;;;;18.58;12.63;;;6.60;84.00;;;;;;5094425;28;20032;-74
2021/01/02 02:21:08;;;;;;;22.90;13.40;;;6.60;84.10;;;;;;5093179;28;20020;-74
2021/01/02 02:23:57;;;;;;;20.60;13.50;;;6.60;84.00;;;;;;5094106;28;20032;-74
2021/01/02 02:26:36;;;;;;;19.88;12.80;;;6.60;84.00;;;;;;5092701;28;20455;-74
2021/01/02 02:29:22;;;;;;;19.75;13.02;;;6.60;84.00;;;;;;5092670;28;20074;-74
2021/01/02 02:31:49;;;;;;;20.30;12.43;;;6.60;84.00;;;;;;5094376;28;20028;-74
2021/01/02 02:34:16;;;;;;;24.17;14.75;;;6.60;83.90;;;;;;5092532;28;20106;-74
2021/01/02 02:36:42;;;;;;;22.50;13.50;;;6.60;83.90;;;;;;5092029;28;20054;-74
2021/01/02 02:39:11;;;;;;;20.58;12.93;;;6.60;83.90;;;;;;5092275;28;20050;-74
2021/01/02 02:41:51;;;;;;;22.23;13.48;;;6.60;83.90;;;;;;5092106;28;20110;-74
2021/01/02 02:44:23;;;;;;;23.05;13.70;;;6.50;83.90;;;;;;5091863;28;20039;-74
2021/01/02 02:46:54;;;;;;;22.03;13.00;;;6.50;84.50;;;;;;5092054;28;20528;-75
2021/01/02 02:49:23;;;;;;;24.33;13.80;;;6.60;83.90;;;;;;5093506;28;20586;-74
2021/01/02 02:52:00;;;;;;;20.52;13.48;;;6.50;83.80;;;;;;5092227;28;20082;-74
2021/01/02 02:54:26;;;;;;;21.80;14.10;;;6.50;83.90;;;;;;5092559;28;20039;-74
2021/01/02 02:56:52;;;;;;;22.60;13.40;;;6.50;84.00;;;;;;5092171;28;20372;-75
2021/01/02 02:59:18;;;;;;;22.95;13.70;;;6.40;84.00;;;;;;5093262;28;20373;-74
2021/01/02 03:01:48;;;;;;;22.77;14.23;;;6.50;84.10;;;;;;5093338;28;20073;-74
2021/01/02 03:04:14;;;;;;;22.13;13.43;;;6.50;84.10;;;;;;5093303;28;20031;-74
2021/01/02 03:06:41;;;;;;;22.42;14.40;;;6.50;84.00;;;;;;5091655;28;20089;-75
2021/01/02 03:09:09;;;;;;;21.85;13.60;;;6.50;84.00;;;;;;5091873;28;20024;-74
2021/01/02 03:11:35;;;;;;;22.23;13.50;;;6.50;84.00;;;;;;5091716;28;20484;-74
2021/01/02 03:14:00;;;;;;;22.17;14.30;;;6.50;84.00;;;;;;5091635;28;20054;-75
2021/01/02 03:16:26;;;;;;;21.98;14.05;;;6.50;84.00;;;;;;5092992;28;20024;-74
2021/01/02 03:18:52;;;;;;;20.58;13.18;;;6.50;83.90;;;;;;5091453;28;20020;-74
2021/01/02 03:21:18;;;;;;;22.05;13.95;;;6.50;83.90;;;;;;5091423;28;20127;-74
2021/01/02 03:23:46;;;;;;;20.48;12.77;;;6.50;83.80;;;;;;5091408;28;20060;-74
2021/01/02 03:26:12;;;;;;;19.20;12.93;;;6.50;83.80;;;;;;5091276;28;20020;-74
2021/01/02 03:28:37;;;;;;;20.27;13.50;;;6.50;83.80;;;;;;5092517;28;20092;-74
2021/01/02 03:31:03;;;;;;;20.35;12.43;;;6.60;83.80;;;;;;5092727;28;20425;-74
2021/01/02 03:33:29;;;;;;;21.58;13.55;;;6.60;83.80;;;;;;5092458;28;20099;-75
2021/01/02 03:36:02;;;;;;;19.65;13.50;;;6.60;83.70;;;;;;5091223;28;20114;-74
2021/01/02 03:38:33;;;;;;;19.98;13.10;;;6.60;83.70;;;;;;5091265;28;20103;-74
2021/01/02 03:40:59;;;;;;;20.88;13.98;;;6.60;83.70;;;;;;5092743;28;20055;-74
2021/01/02 03:43:25;;;;;;;19.20;13.45;;;6.50;83.50;;;;;;5091323;28;20020;-74
2021/01/02 03:45:52;;;;;;;22.25;13.45;;;6.50;83.60;;;;;;5092524;28;20035;-75
2021/01/02 03:48:17;;;;;;;20.23;13.32;;;6.50;83.60;;;;;;5091293;28;20024;-74
2021/01/02 03:50:43;;;;;;;19.90;13.07;;;6.50;83.70;;;;;;5095926;28;20040;-74
2021/01/02 03:53:09;;;;;;;19.90;12.65;;;6.50;83.60;;;;;;5095185;28;20028;-75
2021/01/02 03:55:34;;;;;;;21.05;13.52;;;6.50;83.70;;;;;;5097060;28;20456;-74
2021/01/02 03:58:00;;;;;;;21.23;13.05;;;6.50;83.60;;;;;;5095224;28;20117;-75
2021/01/02 04:00:26;;;;;;;19.52;13.13;;;6.50;83.50;;;;;;5095091;28;20077;-75
2021/01/02 04:02:52;;;;;;;21.90;14.00;;;6.50;83.50;;;;;;5094989;28;20441;-75
2021/01/02 04:05:18;;;;;;;20.60;13.63;;;6.50;83.60;;;;;;5095123;28;20176;-74
2021/01/02 04:07:43;;;;;;;20.75;13.30;;;6.50;83.60;;;;;;5094762;28;20135;-74
2021/01/02 04:10:09;;;;;;;20.40;12.85;;;6.50;83.50;;;;;;5096247;28;20027;-74
2021/01/02 04:12:35;;;;;;;17.92;12.68;;;6.50;83.50;;;;;;5094794;28;20031;-74
2021/01/02 04:15:01;;;;;;;22.52;13.45;;;6.50;83.50;;;;;;5094825;28;20024;-75
2021/01/02 04:17:27;;;;;;;20.77;13.70;;;6.50;83.50;;;;;;5094523;28;20370;-73
2021/01/02 04:19:53;;;;;;;21.98;14.48;;;6.50;83.40;;;;;;5095793;28;20027;-74
2021/01/02 04:22:19;;;;;;;20.33;13.70;;;6.50;83.40;;;;;;5094373;28;20089;-75
2021/01/02 04:24:44;;;;;;;21.90;13.98;;;6.40;83.30;;;;;;5095660;28;20024;-74
2021/01/02 04:27:10;;;;;;;18.95;12.98;;;6.40;83.30;;;;;;5095936;28;20062;-74
2021/01/02 04:29:36;;;;;;;20.30;14.02;;;6.40;83.40;;;;;;5094318;28;20023;-74
2021/01/02 04:32:02;;;;;;;21.52;13.85;;;6.40;83.30;;;;;;5095883;28;20024;-74
2021/01/02 04:34:28;;;;;;;21.58;13.82;;;6.40;83.30;;;;;;5096220;28;20043;-75
2021/01/02 04:36:53;;;;;;;19.67;13.15;;;6.50;83.40;;;;;;5095771;28;20024;-74
2021/01/02 04:39:20;;;;;;;22.23;14.82;;;6.50;83.30;;;;;;5095829;28;20124;-74
2021/01/02 04:41:45;;;;;;;21.92;14.57;;;6.50;83.90;;;;;;5094447;28;20184;-74
2021/01/02 04:44:11;;;;;;;27.60;15.82;;;6.50;83.20;;;;;;5095629;28;20107;-74
2021/01/02 04:46:38;;;;;;;23.67;15.70;;;6.50;83.10;;;;;;5095982;28;20016;-74
2021/01/02 04:49:05;;;;;;;24.00;15.25;;;6.40;83.20;;;;;;5095811;28;20019;-73
2021/01/02 04:51:30;;;;;;;22.23;14.82;;;6.40;83.10;;;;;;5094173;28;20031;-74
2021/01/02 04:54:04;;;;;;;21.52;14.55;;;6.40;83.20;;;;;;5094137;28;20035;-75
2021/01/02 04:56:31;;;;;;;;;;;6.30;83.30;;;;;;5095843;28;20035;-74
2021/01/02 04:59:00;;;;;;;23.90;14.82;;;6.30;83.30;;;;;;5095453;28;20370;-75
2021/01/02 05:01:28;;;;;;;25.92;15.65;;;6.30;83.30;;;;;;5095290;28;20058;-75
2021/01/02 05:03:53;;;;;;;21.15;13.95;;;6.30;83.30;;;;;;5093664;28;20057;-75
2021/01/02 05:06:21;;;;;;;23.13;14.77;;;6.30;83.20;;;;;;5093706;28;20044;-74
2021/01/02 05:08:48;;;;;;;26.73;17.17;;;6.30;83.30;;;;;;5095221;28;20179;-75
2021/01/02 05:11:15;;;;;;;23.50;15.52;;;6.30;83.30;;;;;;5095308;28;20070;-74
2021/01/02 05:13:40;;;;;;;23.58;15.38;;;6.30;83.20;;;;;;5093606;28;20013;-74
2021/01/02 05:16:27;;;;;;;23.75;15.82;;;6.30;83.20;;;;;;5093669;28;20491;-74
2021/01/02 05:18:54;;;;;;;24.33;15.85;;;6.30;83.30;;;;;;5093695;28;20022;-74
2021/01/02 05:21:19;;;;;;;27.00;17.58;;;6.30;83.20;;;;;;5093616;28;20024;-74
2021/01/02 05:24:10;;;;;;;24.98;15.40;;;6.30;83.20;;;;;;5093472;28;20556;-74
2021/01/02 05:26:38;;;;;;;27.05;16.90;;;6.30;83.20;;;;;;5093464;28;20055;-74
2021/01/02 05:29:14;;;;;;;24.73;16.10;;;6.20;83.10;;;;;;5093644;28;20035;-75
2021/01/02 05:31:42;;;;;;;23.67;16.02;;;6.20;83.20;;;;;;5093432;28;20016;-74
2021/01/02 05:34:10;;;;;;;23.75;15.55;;;6.20;83.10;;;;;;5093618;28;20377;-74
2021/01/02 05:36:35;;;;;;;22.50;15.23;;;6.20;83.10;;;;;;5093434;28;20089;-74
2021/01/02 05:39:03;;;;;;;26.48;17.33;;;6.20;83.00;;;;;;5094855;28;20024;-74
2021/01/02 05:41:49;;;;;;;24.08;15.95;;;6.20;83.00;;;;;;5094578;28;20035;-74
2021/01/02 05:44:15;;;;;;;28.95;16.92;;;6.20;83.00;;;;;;5092991;28;20028;-74
2021/01/02 05:46:49;;;;;;;26.38;16.10;;;6.20;83.00;;;;;;5093173;28;20345;-74
2021/01/02 05:49:37;;;;;;;25.90;16.45;;;6.20;83.00;;;;;;5093402;28;20024;-74
2021/01/02 05:52:08;;;;;;;25.33;16.88;;;6.20;83.00;;;;;;5093064;28;20016;-74
2021/01/02 05:54:47;;;;;;;25.83;17.15;;;6.20;83.10;;;;;;5093128;28;20028;-74
2021/01/02 05:57:14;;;;;;;26.52;18.23;;;6.10;83.10;;;;;;5094530;28;20020;-74
2021/01/02 05:59:42;;;;;;;26.50;17.40;;;6.10;82.90;;;;;;5092761;28;20016;-74
2021/01/02 06:02:18;;;;;;;28.67;18.25;;;6.00;83.00;;;;;;5094122;28;20510;-74
2021/01/02 06:04:57;;;;;;;30.80;18.45;;;6.00;83.10;;;;;;5092625;28;20024;-74
2021/01/02 06:07:23;;;;;;;27.83;17.45;;;6.00;83.20;;;;;;5093906;28;20373;-74
2021/01/02 06:09:50;;;;;;;26.42;17.30;;;6.00;83.20;;;;;;5092595;28;20016;-74
2021/01/02 06:12:25;;;;;;;27.67;17.75;;;6.00;83.20;;;;;;5092486;28;20090;-74
2021/01/02 06:14:53;;;;;;;31.30;20.05;;;6.00;83.20;;;;;;5092384;28;20080;-74
2021/01/02 06:17:26;;;;;;;32.70;19.73;;;6.00;83.10;;;;;;5093860;28;20463;-75
2021/01/02 06:19:51;;;;;;;31.25;19.52;;;5.90;83.10;;;;;;5092663;28;20016;-74
2021/01/02 06:22:18;;;;;;;31.60;18.42;;;5.90;83.30;;;;;;5093644;28;20077;-75
2021/01/02 06:24:43;;;;;;;31.85;18.55;;;5.80;83.30;;;;;;5092250;28;20032;-74
2021/01/02 06:27:09;;;;;;;32.90;18.95;;;5.90;83.50;;;;;;5093853;28;20125;-74
2021/01/02 06:29:35;;;;;;;28.63;18.25;;;5.80;83.40;;;;;;5092392;28;20119;-74
2021/01/02 06:32:01;;;;;;;32.97;20.75;;;5.90;83.50;;;;;;5093503;28;20436;-75
2021/01/02 06:34:27;;;;;;;32.35;19.88;;;5.90;83.50;;;;;;5092322;28;20473;-74
2021/01/02 06:36:55;;;;;;;35.53;20.10;;;5.90;83.50;;;;;;5092087;28;20020;-74
2021/01/02 06:39:22;;;;;;;30.83;19.27;;;5.80;83.30;;;;;;5093598;28;20028;-75
2021/01/02 06:41:48;;;;;;;32.78;20.02;;;5.80;83.50;;;;;;5091990;28;20023;-75
2021/01/02 06:44:52;;;;;;;31.30;19.05;;;5.80;83.50;;;;;;5091917;28;20058;-74
2021/01/02 06:47:20;;;;;;;31.02;19.42;;;5.80;83.50;;;;;;5089933;28;20115;-74
2021/01/02 06:49:47;;;;;;;33.30;20.17;;;5.80;83.60;;;;;;5091917;28;20024;-74
2021/01/02 06:52:35;;;;;;;30.08;18.65;;;5.80;83.60;;;;;;5091732;28;20040;-74
2021/01/02 06:55:24;;;;;;;33.65;19.98;;;5.80;83.50;;;;;;5091869;28;20019;-74
2021/01/02 06:57:51;;;;;;;30.88;19.42;;;5.80;83.50;;;;;;5092293;28;20096;-74
2021/01/02 07:00:27;;;;;;;33.70;20.90;;;5.80;83.50;;;;;;5091611;28;20020;-74
2021/01/02 07:02:54;;;;;;;36.10;21.00;;;5.80;83.40;;;;;;5092784;28;20090;-74
2021/01/02 07:05:48;;;;;;;34.85;19.83;;;5.80;83.50;;;;;;5091646;28;20024;-75
2021/01/02 07:08:45;;;;;;;31.73;19.30;;;5.80;83.40;;;;;;5093118;28;20039;-74
2021/01/02 07:11:22;;;;;;;34.40;19.73;;;5.70;83.50;;;;;;5091620;28;20184;-74
2021/01/02 07:13:48;;;;;;;32.78;18.27;;;5.80;83.60;;;;;;5091434;28;20136;-74
2021/01/02 07:16:34;;;;;;;34.35;19.13;;;5.80;83.60;;;;;;5093024;28;20491;-75
2021/01/02 07:19:00;;;;;;;31.80;19.05;;;5.80;83.50;;;;;;5092352;28;20032;-74
2021/01/02 07:21:35;;;;;;;33.20;19.15;;;5.80;83.60;;;;;;5092539;28;20031;-74
2021/01/02 07:24:20;;;;;;;32.13;19.23;;;5.80;83.70;;;;;;5091789;28;20111;-74
2021/01/02 07:26:46;;;;;;;32.83;19.80;;;5.80;83.70;;;;;;5091180;28;20028;-74
2021/01/02 07:29:18;;;;;;;32.38;19.58;;;5.80;83.70;;;;;;5091252;28;20020;-74
2021/01/02 07:31:45;;;;;;;29.85;18.60;;;5.80;83.80;;;;;;5091349;28;20016;-74
2021/01/02 07:34:23;;;;;;;33.28;19.20;;;5.80;83.70;;;;;;5093028;28;20085;-74
2021/01/02 07:36:49;;;;;;;33.90;20.52;;;5.90;83.70;;;;;;5091869;28;20372;-74
2021/01/02 07:39:16;;;;;;;34.25;19.85;;;5.90;83.70;;;;;;5091258;28;20047;-73
2021/01/02 07:41:42;;;;;;;29.77;18.92;;;5.90;83.70;;;;;;5091075;28;20031;-74
2021/01/02 07:44:08;;;;;;;31.88;19.55;;;5.90;83.60;;;;;;5092339;28;20120;-74
2021/01/02 07:46:43;;;;;;;37.80;20.98;;;5.90;83.70;;;;;;5091191;28;20109;-74
2021/01/02 07:49:09;;;;;;;34.97;20.38;;;5.80;83.70;;;;;;5090986;28;20498;-74
2021/01/02 07:51:35;;;;;;;37.20;21.25;;;5.80;83.60;;;;;;5091044;28;20438;-73
2021/01/02 07:54:01;;;;;;;36.13;21.08;;;5.80;83.60;;;;;;5092254;28;20145;-74
2021/01/02 07:56:40;;;;;;;37.00;21.13;;;5.80;83.80;;;;;;5092198;28;20035;-74
2021/01/02 07:59:29;;;;;;;41.22;22.63;;;5.70;83.80;;;;;;5092355;28;20031;-74
2021/01/02 08:02:02;;;;;;;43.70;24.00;;;5.70;83.80;;;;;;5092416;28;20078;-74
2021/01/02 08:04:29;;;;;;;34.80;20.67;;;5.70;83.80;;;;;;5090963;28;20051;-74
2021/01/02 08:07:04;;;;;;;39.92;22.00;;;5.60;83.70;;;;;;5092130;28;20048;-74
2021/01/02 08:09:35;;;;;;;41.42;22.30;;;5.70;83.90;;;;;;5091110;28;20028;-74
2021/01/02 08:12:08;;;;;;;35.85;21.42;;;5.60;83.80;;;;;;5090768;28;20129;-73
2021/01/02 08:14:36;;;;;;;37.90;21.15;;;5.60;83.90;;;;;;5092219;28;20032;-73
2021/01/02 08:17:12;;;;;;;42.60;22.15;;;5.60;84.00;;;;;;5091039;28;20111;-73
2021/01/02 08:19:45;;;;;;;36.70;20.58;;;5.70;84.00;;;;;;5092306;28;20028;-74
2021/01/02 08:22:11;;;;;;;36.10;20.05;;;5.70;84.00;;;;;;5090847;28;20097;-73
2021/01/02 08:24:38;;;;;;;34.50;20.23;;;5.70;84.00;;;;;;5091993;28;20460;-74
2021/01/02 08:27:04;;;;;;;34.70;20.35;;;5.70;84.00;;;;;;5092291;28;20330;-74
2021/01/02 08:29:32;;;;;;;37.78;19.98;;;5.80;84.00;;;;;;5091044;28;20054;-74
2021/01/02 08:32:10;;;;;;;37.97;21.75;;;5.80;84.00;;;;;;5090885;28;20386;-74
2021/01/02 08:34:36;;;;;;;38.17;20.75;;;5.80;84.00;;;;;;5092189;28;20487;-74
2021/01/02 08:37:10;;;;;;;40.47;21.80;;;5.80;83.90;;;;;;5094592;28;20035;-74
2021/01/02 08:39:37;;;;;;;41.58;22.88;;;5.80;83.90;;;;;;5094525;28;20048;-74
2021/01/02 08:42:05;;;;;;;44.35;22.83;;;5.70;83.80;;;;;;5094597;28;20081;-74
2021/01/02 08:44:48;;;;;;;45.65;22.92;;;5.70;84.60;;;;;;5094025;28;20066;-74
2021/01/02 08:47:26;;;;;;;43.13;22.05;;;5.60;84.00;;;;;;5095779;28;20031;-74
2021/01/02 08:49:52;;;;;;;41.10;21.38;;;5.60;84.00;;;;;;5094209;28;20043;-74
2021/01/02 08:52:19;;;;;;;39.22;20.70;;;5.50;84.20;;;;;;5094303;28;20024;-74
2021/01/02 08:54:46;;;;;;;33.88;19.88;;;5.50;84.40;;;;;;5094357;28;20439;-73
2021/01/02 08:57:32;;;;;;;40.58;22.30;;;5.50;84.40;;;;;;5095420;28;20035;-74
2021/01/02 09:00:09;;;;;;;38.15;20.33;;;5.50;84.40;;;;;;5094128;28;20039;-73
2021/01/02 09:02:35;;;;;;;37.25;20.30;;;5.50;84.30;;;;;;5093787;28;20040;-74
2021/01/02 09:05:06;;;;;;;34.95;19.08;;;5.50;84.40;;;;;;5093901;28;20429;-73
2021/01/02 09:07:32;;;;;;;38.17;21.45;;;5.50;84.50;;;;;;5094848;28;20043;-74
2021/01/02 09:10:12;;;;;;;35.97;19.88;;;5.50;84.40;;;;;;5095760;28;20336;-73
2021/01/02 09:12:38;;;;;;;36.38;19.77;;;5.50;84.40;;;;;;5094967;28;20035;-73
2021/01/02 09:15:04;;;;;;;36.67;19.08;;;5.60;84.50;;;;;;5095374;28;20380;-74
2021/01/02 09:17:30;;;;;;;32.15;18.00;;;5.60;84.50;;;;;;5095015;28;20084;-73
2021/01/02 09:20:18;;;;;;;43.85;22.30;;;5.70;84.50;;;;;;5093820;28;20036;-73
2021/01/02 09:22:53;;;;;;;36.17;19.55;;;5.70;84.30;;;;;;5094921;28;20045;-74
2021/01/02 09:25:26;;;;;;;35.47;20.35;;;5.70;84.30;;;;;;5093521;28;20071;-74
2021/01/02 09:27:51;;;;;;;39.13;21.02;;;5.60;84.20;;;;;;5093401;28;20038;-74
2021/01/02 09:30:17;;;;;;;45.22;19.38;;;5.60;84.40;;;;;;5093608;28;20024;-73
2021/01/02 09:32:43;;;;;;;35.70;19.17;;;5.60;84.40;;;;;;5093282;28;20025;-74
2021/01/02 09:35:09;;;;;;;32.60;19.02;;;5.70;84.40;;;;;;5094918;28;20027;-73
2021/01/02 09:37:35;;;;;;;34.90;18.92;;;5.70;84.50;;;;;;5094517;28;20031;-74
2021/01/02 09:40:15;;;;;;;35.53;19.98;;;5.70;84.50;;;;;;5093168;28;20016;-74
2021/01/02 09:42:40;;;;;;;32.95;18.60;;;5.80;84.50;;;;;;5094480;28;20057;-73
2021/01/02 09:45:06;;;;;;;37.63;19.67;;;5.90;84.40;;;;;;5094723;28;20032;-73
2021/01/02 09:47:32;;;;;;;37.40;19.77;;;5.90;84.30;;;;;;5092393;28;20028;-73
2021/01/02 09:49:58;;;;;;;42.33;20.83;;;5.90;84.20;;;;;;5093174;28;20031;-73
2021/01/02 09:52:23;;;;;;;40.50;21.25;;;5.90;84.00;;;;;;5093118;28;20024;-74
2021/01/02 09:54:49;;;;;;;39.67;19.63;;;5.90;84.10;;;;;;5092985;28;20128;-74
2021/01/02 09:57:14;;;;;;;41.05;20.73;;;5.80;84.20;;;;;;5094448;28;20032;-73
2021/01/02 09:59:43;;;;;;;39.28;21.10;;;5.90;84.30;;;;;;5094372;28;20028;-73
2021/01/02 10:02:09;;;;;;;38.00;20.13;;;5.90;84.10;;;;;;5094332;28;20169;-74
2021/01/02 10:04:40;;;;;;;36.17;19.45;;;5.80;84.10;;;;;;5094230;28;20027;-74
2021/01/02 10:07:06;;;;;;;37.10;18.90;;;5.80;84.10;;;;;;5094093;28;20105;-73
2021/01/02 10:09:31;;;;;;;42.22;21.55;;;5.80;84.20;;;;;;5094235;28;20394;-74
2021/01/02 10:11:57;;;;;;;40.53;18.48;;;5.80;84.20;;;;;;5094104;28;20104;-73
2021/01/02 10:14:22;;;;;;;35.13;18.17;;;5.70;84.20;;;;;;5092909;28;20391;-74
2021/01/02 10:16:48;;;;;;;37.75;19.42;;;5.80;84.40;;;;;;5092544;28;20474;-73
2021/01/02 10:19:14;;;;;;;40.22;20.38;;;5.70;84.30;;;;;;5092828;28;20044;-73
2021/01/02 10:21:39;;;;;;;34.95;19.38;;;5.70;84.40;;;;;;5093900;28;20047;-73
2021/01/02 10:24:06;;;;;;;40.13;20.08;;;5.80;84.40;;;;;;5093855;28;20032;-72
2021/01/02 10:26:31;;;;;;;35.88;18.70;;;5.70;84.30;;;;;;5092645;28;20509;-75
2021/01/02 10:28:57;;;;;;;39.42;19.75;;;5.70;84.40;;;;;;5092556;28;20055;-74
2021/01/02 10:31:23;;;;;;;33.45;17.70;;;5.70;84.50;;;;;;5093721;28;20436;-74
2021/01/02 10:33:48;;;;;;;37.63;18.88;;;5.70;84.40;;;;;;5093666;28;20032;-74
2021/01/02 10:36:14;;;;;;;39.10;19.45;;;5.70;84.50;;;;;;5093657;28;20123;-74
2021/01/02 10:38:40;;;;;;;37.92;19.58;;;5.80;84.60;;;;;;5094019;28;20407;-74
2021/01/02 10:41:05;;;;;;;38.80;19.45;;;5.80;84.50;;;;;;5092926;28;20036;-74
2021/01/02 10:43:31;;;;;;;37.13;19.55;;;5.80;84.50;;;;;;5093525;28;20389;-73
2021/01/02 10:45:56;;;;;;;44.72;21.52;;;5.90;84.60;;;;;;5092217;28;20020;-74
2021/01/02 10:48:22;;;;;;;44.22;21.58;;;5.90;84.60;;;;;;5091911;28;20020;-74
2021/01/02 10:50:48;;;;;;;41.28;21.08;;;5.90;84.50;;;;;;5092010;28;20352;-74
2021/01/02 10:53:13;;;;;;;40.95;19.85;;;5.90;84.50;;;;;;5091925;28;20028;-75
2021/01/02 10:55:39;;;;;;;41.53;20.95;;;6.00;84.50;;;;;;5091932;28;20027;-75
2021/01/02 10:58:04;;;;;;;41.60;19.73;;;6.00;84.50;;;;;;5091782;28;20465;-75
2021/01/02 11:00:30;;;;;;;44.83;20.77;;;6.10;84.40;;;;;;5092496;28;20031;-76
2021/01/02 11:02:56;;;;;;;40.15;20.92;;;6.10;84.40;;;;;;5093764;28;20082;-74
2021/01/02 11:05:21;;;;;;;41.63;20.13;;;6.10;84.30;;;;;;5092167;28;20050;-75
2021/01/02 11:07:47;;;;;;;35.92;18.02;;;6.10;84.30;;;;;;5092004;28;20063;-74
2021/01/02 11:10:13;;;;;;;41.42;20.25;;;6.20;84.30;;;;;;5093039;28;20183;-75
2021/01/02 11:12:38;;;;;;;38.72;20.73;;;6.20;84.20;;;;;;5091401;28;20390;-74
2021/01/02 11:15:07;;;;;;;36.55;19.95;;;6.20;84.20;;;;;;5091623;28;20443;-74
2021/01/02 11:17:33;;;;;;;43.40;22.02;;;6.20;84.20;;;;;;5092590;28;20555;-75
2021/01/02 11:19:59;;;;;;;39.13;19.80;;;6.20;84.00;;;;;;5091409;28;20198;-75
2021/01/02 11:22:24;;;;;;;35.90;19.25;;;6.20;84.00;;;;;;5092883;28;20103;-74
2021/01/02 11:24:50;;;;;;;38.70;18.38;;;6.20;84.00;;;;;;5092736;28;20031;-74
2021/01/02 11:27:18;;;;;;;34.35;16.73;;;6.20;84.10;;;;;;5091454;28;20372;-74
2021/01/02 11:29:44;;;;;;;35.65;18.05;;;6.20;84.00;;;;;;5091399;28;20042;-74
2021/01/02 11:32:11;;;;;;;36.33;17.67;;;6.20;84.60;;;;;;5091522;28;20031;-74
2021/01/02 11:34:37;;;;;;;34.97;17.15;;;6.30;84.10;;;;;;5092812;28;20032;-75
2021/01/02 11:37:05;;;;;;;38.78;19.60;;;6.30;84.00;;;;;;5091324;28;20119;-74
2021/01/02 11:39:32;;;;;;;35.55;18.27;;;6.30;83.90;;;;;;5091217;28;20028;-75
2021/01/02 11:41:59;;;;;;;35.80;19.05;;;6.30;83.70;;;;;;5091366;28;20107;-74
2021/01/02 11:44:25;;;;;;;36.45;19.90;;;6.30;83.70;;;;;;5091265;28;20025;-74
2021/01/02 11:46:53;;;;;;;36.40;18.25;;;6.20;83.70;;;;;;5091125;28;20024;-75
2021/01/02 11:49:37;;;;;;;34.72;18.15;;;6.20;83.70;;;;;;5092444;28;20031;-74
2021/01/02 11:52:07;;;;;;;35.45;19.48;;;6.20;84.00;;;;;;5090784;28;20071;-74
2021/01/02 11:54:34;;;;;;;36.67;17.98;;;6.10;83.90;;;;;;5091029;28;20024;-74
2021/01/02 11:57:01;;;;;;;35.90;18.13;;;6.10;83.90;;;;;;5091085;28;20016;-73
2021/01/02 11:59:27;;;;;;;36.22;18.25;;;6.20;84.00;;;;;;5091169;28;20055;-74
2021/01/02 12:01:55;;;;;;;45.05;20.30;;;6.20;83.80;;;;;;5091068;28;20068;-74
2021/01/02 12:04:23;;;;;;;33.55;18.13;;;6.30;83.70;;;;;;5092492;28;20421;-74
2021/01/02 12:06:50;;;;;;;36.78;18.83;;;6.10;83.50;;;;;;5092346;28;20478;-74
2021/01/02 12:09:18;;;;;;;35.10;18.25;;;6.10;83.80;;;;;;5091118;28;20016;-74
2021/01/02 12:11:45;;;;;;;32.92;16.75;;;6.00;83.90;;;;;;5094457;28;20383;-74
2021/01/02 12:14:14;;;;;;;31.23;16.00;;;6.10;84.10;;;;;;5094695;28;20472;-73
2021/01/02 12:16:42;;;;;;;34.20;17.05;;;6.10;84.00;;;;;;5094615;28;20122;-74
2021/01/02 12:19:11;;;;;;;36.15;18.13;;;6.10;84.00;;;;;;5096316;28;20032;-73
2021/01/02 12:21:37;;;;;;;30.80;16.60;;;6.10;83.90;;;;;;5096009;28;20035;-74
2021/01/02 12:24:04;;;;;;;36.40;17.98;;;6.00;83.90;;;;;;5094582;28;20352;-73
2021/01/02 12:26:29;;;;;;;30.50;15.23;;;6.00;84.00;;;;;;5095765;28;20468;-74
2021/01/02 12:28:55;;;;;;;30.25;16.50;;;6.00;84.10;;;;;;5095034;28;20100;-74
2021/01/02 12:31:24;;;;;;;29.30;15.85;;;6.10;84.10;;;;;;5094351;28;20077;-74
2021/01/02 12:33:50;;;;;;;39.65;21.83;;;6.10;84.20;;;;;;5094146;28;20039;-75
2021/01/02 12:36:18;;;;;;;37.40;21.65;;;6.10;84.20;;;;;;5094124;28;20073;-75
2021/01/02 12:38:44;;;;;;;37.30;20.92;;;6.20;84.20;;;;;;5095590;28;20028;-74
2021/01/02 12:41:17;;;;;;;36.28;18.15;;;6.20;84.20;;;;;;5095503;28;20035;-73
2021/01/02 12:43:43;;;;;;;32.97;16.98;;;6.20;84.10;;;;;;5093925;28;20035;-74
2021/01/02 12:46:11;;;;;;;29.30;15.90;;;6.30;84.10;;;;;;5094039;28;20524;-74
2021/01/02 12:48:37;;;;;;;31.73;16.33;;;6.30;84.10;;;;;;5095458;28;20104;-73
2021/01/02 12:51:04;;;;;;;33.03;15.63;;;6.40;84.10;;;;;;5091259;28;20123;-73
2021/01/02 12:53:29;;;;;;;31.75;17.02;;;6.40;84.00;;;;;;5095781;28;20020;-74
2021/01/02 12:55:56;;;;;;;30.23;15.85;;;6.40;83.90;;;;;;5094527;28;20030;-74